createdAt,value
2022-11-02T00:00:33.837Z,99810.56
2022-11-02T00:03:00.512Z,99812.19
2022-11-02T00:05:27.194Z,99802.09
2022-11-02T00:07:55.686Z,99806.59
2022-11-02T00:10:23.318Z,99808.91
2022-11-02T00:12:50.564Z,99808.03
2022-11-02T00:15:17.531Z,99801.19
2022-11-02T00:17:48.992Z,99807.84
2022-11-02T00:20:18.312Z,99821.28
2022-11-02T00:22:48.198Z,99821.47
2022-11-02T00:25:17.955Z,99817.06
2022-11-02T00:27:44.563Z,99818.06
2022-11-02T00:30:11.281Z,99821.47
2022-11-02T00:32:37.792Z,99825.19
2022-11-02T00:35:04.598Z,99813.78
2022-11-02T00:37:31.170Z,99820.81
2022-11-02T00:39:57.921Z,99813.22
2022-11-02T00:42:24.582Z,99821.31
2022-11-02T00:44:51.115Z,99828.41
2022-11-02T00:47:17.592Z,99825.69
2022-11-02T00:49:44.092Z,99825.97
2022-11-02T00:52:10.612Z,99823.00
2022-11-02T00:54:37.125Z,99829.44
2022-11-02T00:57:03.698Z,99827.56
2022-11-02T00:59:30.262Z,99827.81
2022-11-02T01:01:56.963Z,99833.81
2022-11-02T01:04:23.644Z,99839.50
2022-11-02T01:06:50.159Z,99831.69
2022-11-02T01:09:16.848Z,99825.75
2022-11-02T01:11:43.719Z,99831.19
2022-11-02T01:14:10.443Z,99828.28
2022-11-02T01:16:40.204Z,99828.59
2022-11-02T01:19:07.367Z,99823.78
2022-11-02T01:21:33.914Z,99813.00
2022-11-02T01:24:00.411Z,99816.81
2022-11-02T01:26:26.985Z,99823.28
2022-11-02T01:28:54.420Z,99822.72
2022-11-02T01:31:21.043Z,99826.25
2022-11-02T01:33:47.868Z,99816.22
2022-11-02T01:36:17.207Z,99821.94
2022-11-02T01:38:43.846Z,99823.81
2022-11-02T01:41:11.725Z,99833.25
2022-11-02T01:43:38.440Z,99821.91
2022-11-02T01:46:10.713Z,99816.69
2022-11-02T01:48:39.246Z,99826.34
2022-11-02T01:51:10.577Z,99830.00
2022-11-02T01:53:41.703Z,99834.78
2022-11-02T01:56:12.377Z,99836.38
2022-11-02T01:58:38.897Z,99843.84
2022-11-02T02:01:06.721Z,99835.31
2022-11-02T02:03:35.308Z,99839.81
2022-11-02T02:06:12.669Z,99836.44
2022-11-02T02:08:42.621Z,99826.88
2022-11-02T02:11:26.943Z,99827.13
2022-11-02T02:14:14.707Z,99832.47
2022-11-02T02:16:59.694Z,99833.41
2022-11-02T02:19:37.983Z,99839.28
2022-11-02T02:22:30.576Z,99820.03
2022-11-02T02:25:32.525Z,99814.63
2022-11-02T02:28:14.312Z,99811.16
2022-11-02T02:30:46.705Z,99828.00
2022-11-02T02:33:36.989Z,99827.50
2022-11-02T02:36:10.704Z,99824.34
2022-11-02T02:38:46.651Z,99825.50
2022-11-02T02:41:38.133Z,99819.59
2022-11-02T02:44:09.505Z,99830.41
2022-11-02T02:46:50.974Z,99830.94
2022-11-02T02:49:25.287Z,99835.75
2022-11-02T02:51:53.670Z,99828.94
2022-11-02T02:54:25.291Z,99829.44
2022-11-02T02:56:58.763Z,99825.94
2022-11-02T02:59:31.930Z,99833.56
2022-11-02T03:01:58.932Z,99827.06
2022-11-02T03:04:26.288Z,99823.00
2022-11-02T03:06:57.511Z,99821.72
2022-11-02T03:09:40.437Z,99829.88
2022-11-02T03:12:25.442Z,99833.66
2022-11-02T03:15:01.073Z,99844.50
2022-11-02T03:17:53.898Z,99839.66
2022-11-02T03:20:44.901Z,99830.44
2022-11-02T03:23:39.734Z,99838.00
2022-11-02T03:26:17.029Z,99834.25
2022-11-02T03:29:08.389Z,99839.22
2022-11-02T03:31:55.105Z,99828.47
2022-11-02T03:34:26.956Z,99836.59
2022-11-02T03:37:07.425Z,99838.81
2022-11-02T03:39:42.275Z,99843.94
2022-11-02T03:42:13.834Z,99847.41
2022-11-02T03:44:41.759Z,99850.63
2022-11-02T03:47:12.619Z,99856.84
2022-11-02T03:49:42.471Z,99858.44
2022-11-02T03:52:15.007Z,99862.56
2022-11-02T03:55:08.289Z,99872.03
2022-11-02T03:57:49.164Z,99881.81
2022-11-02T04:00:21.922Z,99887.00
2022-11-02T04:02:52.687Z,99889.19
2022-11-02T04:05:20.947Z,99907.09
2022-11-02T04:08:11.450Z,99904.38
2022-11-02T04:10:57.913Z,99911.47
2022-11-02T04:13:42.859Z,99911.41
2022-11-02T04:16:09.385Z,99916.75
2022-11-02T04:18:54.562Z,99914.06
2022-11-02T04:21:21.174Z,99917.06
2022-11-02T04:24:06.295Z,99919.47
2022-11-02T04:26:32.819Z,99912.94
2022-11-02T04:28:59.397Z,99926.91
2022-11-02T04:31:25.911Z,99930.66
2022-11-02T04:33:52.487Z,99942.50
2022-11-02T04:36:19.193Z,99943.34
2022-11-02T04:38:45.705Z,99944.63
2022-11-02T04:41:33.057Z,99943.28
2022-11-02T04:44:00.225Z,99945.72
2022-11-02T04:46:29.580Z,99959.28
2022-11-02T04:48:56.466Z,99965.19
2022-11-02T04:51:24.843Z,99955.25
2022-11-02T04:53:53.168Z,99968.53
2022-11-02T04:56:20.484Z,99956.94
2022-11-02T04:58:57.704Z,99961.50
2022-11-02T05:01:27.151Z,99973.16
2022-11-02T05:03:55.578Z,99960.19
2022-11-02T05:06:23.673Z,99967.00
2022-11-02T05:08:50.577Z,99980.53
2022-11-02T05:11:17.483Z,99981.09
2022-11-02T05:13:44.762Z,99984.59
2022-11-02T05:16:17.063Z,99981.31
2022-11-02T05:18:44.026Z,99992.94
2022-11-02T05:21:12.061Z,100002.16
2022-11-02T05:23:39.442Z,99992.94
2022-11-02T05:26:09.509Z,100003.78
2022-11-02T05:28:36.097Z,100007.00
2022-11-02T05:31:03.506Z,100000.50
2022-11-02T05:33:31.293Z,100005.91
2022-11-02T05:35:59.673Z,100015.63
2022-11-02T05:38:27.593Z,100018.66
2022-11-02T05:40:55.736Z,100012.41
2022-11-02T05:43:22.491Z,100016.22
2022-11-02T05:45:55.944Z,100016.28
2022-11-02T05:48:23.595Z,100020.44
2022-11-02T05:50:54.605Z,100021.81
2022-11-02T05:53:21.219Z,100025.50
2022-11-02T05:55:47.721Z,100035.06
2022-11-02T05:58:14.227Z,100039.41
2022-11-02T06:00:41.012Z,100025.94
2022-11-02T06:03:07.831Z,100035.66
2022-11-02T06:05:34.750Z,100043.09
2022-11-02T06:08:02.283Z,100045.03
2022-11-02T06:10:30.518Z,100047.66
2022-11-02T06:12:58.998Z,100052.38
2022-11-02T06:15:26.069Z,100049.00
2022-11-02T06:17:52.898Z,100050.31
2022-11-02T06:20:20.289Z,100054.06
2022-11-02T06:22:47.110Z,100054.00
2022-11-02T06:25:14.407Z,100068.16
2022-11-02T06:27:45.855Z,100068.16
2022-11-02T06:30:12.886Z,100064.88
2022-11-02T06:32:39.393Z,100073.06
2022-11-02T06:35:06.538Z,100073.66
2022-11-02T06:37:34.671Z,100081.50
2022-11-02T06:40:01.637Z,100073.19
2022-11-02T06:42:28.374Z,100082.41
2022-11-02T06:44:55.567Z,100079.22
2022-11-02T06:47:22.092Z,100082.56
2022-11-02T06:49:48.640Z,100085.00
2022-11-02T06:52:15.178Z,100092.59
2022-11-02T06:54:41.736Z,100092.91
2022-11-02T06:57:08.257Z,100096.19
2022-11-02T06:59:34.892Z,100099.16
2022-11-02T07:02:01.549Z,100104.84
2022-11-02T07:04:28.187Z,100112.06
2022-11-02T07:06:54.723Z,100114.53
2022-11-02T07:09:21.240Z,100116.59
2022-11-02T07:11:47.745Z,100120.41
2022-11-02T07:14:14.243Z,100127.72
2022-11-02T07:16:40.790Z,100117.75
2022-11-02T07:19:07.334Z,100122.13
2022-11-02T07:21:33.847Z,100126.50
2022-11-02T07:24:00.603Z,100124.06
2022-11-02T07:26:27.736Z,100133.25
2022-11-02T07:28:56.751Z,100148.16
2022-11-02T07:31:25.835Z,100132.69
2022-11-02T07:33:52.388Z,100147.06
2022-11-02T07:36:18.893Z,100150.28
2022-11-02T07:38:45.558Z,100158.09
2022-11-02T07:41:12.061Z,100159.44
2022-11-02T07:43:41.390Z,100169.72
2022-11-02T07:46:10.313Z,100169.13
2022-11-02T07:48:36.895Z,100190.22
2022-11-02T07:51:03.624Z,100187.25
2022-11-02T07:53:30.154Z,100182.09
2022-11-02T07:55:56.674Z,100179.59
2022-11-02T07:58:23.256Z,100182.25
2022-11-02T08:00:49.868Z,100175.44
2022-11-02T08:03:16.559Z,100186.50
2022-11-02T08:05:43.652Z,100192.75
2022-11-02T08:08:16.185Z,100180.28
2022-11-02T08:10:43.932Z,100206.50
2022-11-02T08:13:13.556Z,100195.91
2022-11-02T08:15:40.118Z,100200.47
2022-11-02T08:18:12.646Z,100212.09
2022-11-02T08:20:39.474Z,100208.22
2022-11-02T08:23:07.572Z,100213.88
2022-11-02T08:25:34.692Z,100202.47
2022-11-02T08:28:02.198Z,100210.81
2022-11-02T08:30:30.985Z,100209.16
2022-11-02T08:33:23.774Z,100213.53
2022-11-02T08:35:50.704Z,100214.56
2022-11-02T08:38:18.361Z,100212.41
2022-11-02T08:40:45.100Z,100226.44
2022-11-02T08:43:13.750Z,100217.97
2022-11-02T08:46:13.340Z,100221.94
2022-11-02T08:48:29.507Z,100228.34
2022-11-02T08:50:56.325Z,100229.31
2022-11-02T08:53:23.194Z,100227.63
2022-11-02T08:55:49.793Z,100225.41
2022-11-02T08:58:16.376Z,100232.88
2022-11-02T09:00:42.938Z,100239.81
2022-11-02T09:03:12.714Z,100240.25
2022-11-02T09:05:45.177Z,100228.81
2022-11-02T09:08:14.521Z,100235.25
2022-11-02T09:10:41.148Z,100227.91
2022-11-02T09:13:11.188Z,100236.22
2022-11-02T09:15:38.988Z,100244.00
2022-11-02T09:18:07.358Z,100233.56
2022-11-02T09:20:35.001Z,100230.63
2022-11-02T09:23:02.092Z,100227.97
2022-11-02T09:25:28.870Z,100231.25
2022-11-02T09:27:56.946Z,100229.09
2022-11-02T09:30:25.095Z,100228.94
2022-11-02T09:32:55.824Z,100232.16
2022-11-02T09:35:23.022Z,100233.28
2022-11-02T09:37:50.956Z,100235.38
2022-11-02T09:40:22.535Z,100232.78
2022-11-02T09:43:34.207Z,100233.06
2022-11-02T09:46:12.537Z,100228.75
2022-11-02T09:49:19.681Z,100232.06
2022-11-02T09:51:56.261Z,100224.41
2022-11-02T09:54:29.005Z,100230.53
2022-11-02T09:57:01.736Z,100228.81
2022-11-02T09:59:28.636Z,100220.44
2022-11-02T10:02:20.197Z,100232.28
2022-11-02T10:05:05.368Z,100231.03
2022-11-02T10:07:53.190Z,100241.03
2022-11-02T10:10:26.876Z,100241.31
2022-11-02T10:13:10.456Z,100236.31
2022-11-02T10:15:40.326Z,100230.72
2022-11-02T10:18:13.872Z,100238.56
2022-11-02T10:20:50.984Z,100230.88
2022-11-02T10:23:27.751Z,100229.72
2022-11-02T10:25:55.923Z,100226.38
2022-11-02T10:28:27.647Z,100215.13
2022-11-02T10:30:54.820Z,100209.50
2022-11-02T10:33:27.291Z,100204.78
2022-11-02T10:36:32.312Z,100216.09
2022-11-02T10:39:26.405Z,100209.63
2022-11-02T10:42:05.376Z,100216.97
2022-11-02T10:44:46.879Z,100219.91
2022-11-02T10:47:21.741Z,100218.66
2022-11-02T10:50:13.154Z,100226.69
2022-11-02T10:52:43.663Z,100212.00
2022-11-02T10:55:21.409Z,100217.78
2022-11-02T10:57:49.288Z,100201.25
2022-11-02T11:00:33.809Z,100213.31
2022-11-02T11:03:14.835Z,100205.84
2022-11-02T11:05:50.860Z,100208.63
2022-11-02T11:08:38.789Z,100206.50
2022-11-02T11:11:14.522Z,100199.47
2022-11-02T11:16:34.993Z,100205.41
2022-11-02T11:21:50.200Z,100208.66
2022-11-02T11:24:27.588Z,100201.50
2022-11-02T11:27:01.756Z,100188.88
2022-11-02T11:29:32.157Z,100191.88
2022-11-02T11:32:01.074Z,100185.13
2022-11-02T11:34:31.476Z,100188.59
2022-11-02T11:37:08.803Z,100180.16
2022-11-02T11:39:37.738Z,100172.34
2022-11-02T11:42:05.825Z,100170.75
2022-11-02T11:44:32.911Z,100171.59
2022-11-02T11:47:00.178Z,100166.19
2022-11-02T11:50:07.925Z,100167.16
2022-11-02T11:52:31.143Z,100159.19
2022-11-02T11:55:01.199Z,100161.28
2022-11-02T11:57:45.849Z,100169.59
2022-11-02T12:00:31.263Z,100161.19
2022-11-02T12:03:12.305Z,100154.94
2022-11-02T12:05:59.275Z,100151.59
2022-11-02T12:08:40.872Z,100151.41
2022-11-02T12:11:22.909Z,100152.38
2022-11-02T12:14:10.874Z,100149.59
2022-11-02T12:16:58.628Z,100145.78
2022-11-02T12:19:27.354Z,100145.56
2022-11-02T12:22:11.506Z,100148.41
2022-11-02T12:24:44.254Z,100151.84
2022-11-02T12:27:30.996Z,100146.38
2022-11-02T12:30:09.337Z,100130.50
2022-11-02T12:32:56.024Z,100125.50
2022-11-02T12:35:30.049Z,100126.91
2022-11-02T12:38:11.347Z,100121.69
2022-11-02T12:41:02.469Z,100122.47
2022-11-02T12:43:31.904Z,100116.59
2022-11-02T12:46:48.935Z,100123.28
2022-11-02T12:49:37.212Z,100123.47
2022-11-02T12:52:42.242Z,100119.91
2022-11-02T12:55:17.441Z,100127.38
2022-11-02T12:57:44.919Z,100121.78
2022-11-02T13:00:21.743Z,100117.34
2022-11-02T13:02:54.270Z,100116.63
2022-11-02T13:05:25.259Z,100117.03
2022-11-02T13:08:15.048Z,100111.66
2022-11-02T13:10:53.284Z,100095.72
2022-11-02T13:13:49.716Z,100100.88
2022-11-02T13:16:20.151Z,100092.91
2022-11-02T13:18:53.373Z,100095.56
2022-11-02T13:21:43.716Z,100086.22
2022-11-02T13:24:19.428Z,100091.72
2022-11-02T13:26:53.240Z,100081.94
2022-11-02T13:29:35.230Z,100077.47
2022-11-02T13:32:08.210Z,100068.09
2022-11-02T13:34:41.609Z,100076.06
2022-11-02T13:37:11.680Z,100068.22
2022-11-02T13:39:42.256Z,100054.06
2022-11-02T13:42:36.212Z,100059.03
2022-11-02T13:45:15.392Z,100041.47
2022-11-02T13:48:15.699Z,100041.69
2022-11-02T13:50:57.198Z,100038.28
2022-11-02T13:53:32.753Z,100028.28
2022-11-02T13:56:05.000Z,100040.34
2022-11-02T13:58:34.581Z,100038.78
2022-11-02T14:01:15.662Z,100038.34
2022-11-02T14:04:06.512Z,100034.34
2022-11-02T14:06:44.712Z,100042.56
2022-11-02T14:09:22.074Z,100034.34
2022-11-02T14:11:49.402Z,100031.38
2022-11-02T14:14:18.366Z,100024.13
2022-11-02T14:16:51.153Z,100029.03
2022-11-02T14:19:20.395Z,100020.78
2022-11-02T14:21:59.538Z,100030.75
2022-11-02T14:24:35.065Z,100029.06
2022-11-02T14:27:11.921Z,100022.38
2022-11-02T14:29:47.425Z,100019.16
2022-11-02T14:32:17.019Z,100025.75
2022-11-02T14:35:05.148Z,100029.50
2022-11-02T14:37:37.794Z,100024.34
2022-11-02T14:40:23.340Z,100017.81
2022-11-02T14:43:16.859Z,100007.56
2022-11-02T14:45:48.823Z,100012.06
2022-11-02T14:48:16.875Z,100014.34
2022-11-02T14:50:56.914Z,100015.94
2022-11-02T14:53:32.113Z,100013.34
2022-11-02T14:55:58.927Z,100020.97
2022-11-02T14:58:34.576Z,100012.88
2022-11-02T15:01:04.029Z,100012.16
2022-11-02T15:03:36.142Z,99990.47
2022-11-02T15:06:04.139Z,99993.44
2022-11-02T15:08:35.264Z,100001.75
2022-11-02T15:11:40.387Z,100002.81
2022-11-02T15:14:32.162Z,99998.41
2022-11-02T15:16:59.131Z,99991.34
2022-11-02T15:19:41.088Z,99992.41
2022-11-02T15:22:32.638Z,99989.25
2022-11-02T15:25:05.083Z,99988.38
2022-11-02T15:27:32.086Z,99989.44
2022-11-02T15:30:00.228Z,99989.97
2022-11-02T15:32:30.724Z,99987.00
2022-11-02T15:34:57.926Z,99980.28
2022-11-02T15:37:28.886Z,99982.56
2022-11-02T15:40:00.726Z,99980.44
2022-11-02T15:42:38.428Z,99981.75
2022-11-02T15:45:34.470Z,99976.03
2022-11-02T15:48:43.794Z,99969.78
2022-11-02T15:51:24.307Z,99968.47
2022-11-02T15:54:11.811Z,99972.00
2022-11-02T15:57:10.975Z,99965.72
2022-11-02T16:00:24.528Z,99965.81
2022-11-02T16:02:54.086Z,99963.81
2022-11-02T16:05:25.955Z,99954.25
2022-11-02T16:08:10.418Z,99956.00
2022-11-02T16:10:37.703Z,99945.63
2022-11-02T16:13:10.111Z,99946.06
2022-11-02T16:15:36.836Z,99950.56
2022-11-02T16:18:03.700Z,99960.16
2022-11-02T16:20:34.767Z,99965.75
2022-11-02T16:23:04.251Z,99955.84
2022-11-02T16:25:44.855Z,99950.88
2022-11-02T16:28:24.067Z,99940.97
2022-11-02T16:31:17.983Z,99947.53
2022-11-02T16:33:55.301Z,99945.72
2022-11-02T16:36:24.194Z,99940.16
2022-11-02T16:39:17.500Z,99951.41
2022-11-02T16:41:52.590Z,99943.31
2022-11-02T16:44:30.623Z,99942.28
2022-11-02T16:47:06.129Z,99939.38
2022-11-02T16:49:33.829Z,99941.84
2022-11-02T16:52:17.274Z,99946.22
2022-11-02T16:54:44.999Z,99945.19
2022-11-02T16:57:12.214Z,99937.63
2022-11-02T16:59:50.901Z,99945.22
2022-11-02T17:02:18.638Z,99944.44
2022-11-02T17:04:46.910Z,99941.47
2022-11-02T17:07:20.922Z,99939.63
2022-11-02T17:09:54.058Z,99939.69
2022-11-02T17:12:28.998Z,99949.19
2022-11-02T17:14:56.142Z,99941.94
2022-11-02T17:17:22.602Z,99950.31
2022-11-02T17:20:05.314Z,99942.25
2022-11-02T17:22:36.924Z,99954.44
2022-11-02T17:25:10.249Z,99948.50
2022-11-02T17:27:39.503Z,99943.41
2022-11-02T17:30:28.636Z,99953.50
2022-11-02T17:32:56.302Z,99948.09
2022-11-02T17:35:27.053Z,99950.56
2022-11-02T17:37:54.039Z,99946.81
2022-11-02T17:40:21.988Z,99954.41
2022-11-02T17:43:06.299Z,99940.34
2022-11-02T17:45:33.570Z,99940.09
2022-11-02T17:48:02.102Z,99951.19
2022-11-02T17:50:30.977Z,99949.78
2022-11-02T17:52:59.330Z,99956.25
2022-11-02T17:55:28.317Z,99947.28
2022-11-02T17:57:55.869Z,99948.31
2022-11-02T18:00:23.621Z,99943.97
2022-11-02T18:02:53.073Z,99939.34
2022-11-02T18:05:35.601Z,99933.16
2022-11-02T18:08:03.957Z,99930.97
2022-11-02T18:10:33.279Z,99932.34
2022-11-02T18:13:00.421Z,99933.72
2022-11-02T18:15:29.569Z,99934.00
2022-11-02T18:17:56.709Z,99930.47
2022-11-02T18:20:24.227Z,99934.28
2022-11-02T18:22:50.794Z,99928.91
2022-11-02T18:27:46.248Z,99927.31
2022-11-02T18:30:15.585Z,99928.41
2022-11-02T18:32:43.518Z,99921.38
2022-11-02T18:35:16.385Z,99920.84
2022-11-02T18:37:42.927Z,99923.31
2022-11-02T18:40:11.693Z,99926.88
2022-11-02T18:42:39.855Z,99911.00
2022-11-02T18:45:07.841Z,99916.97
2022-11-02T18:47:35.129Z,99903.72
2022-11-02T18:50:01.930Z,99892.91
2022-11-02T18:52:32.559Z,99893.72
2022-11-02T18:55:04.820Z,99891.81
2022-11-02T18:57:32.247Z,99882.66
2022-11-02T18:59:59.800Z,99884.84
2022-11-02T19:02:26.419Z,99882.41
2022-11-02T19:04:53.006Z,99876.22
2022-11-02T19:07:38.505Z,99879.19
2022-11-02T19:10:05.560Z,99877.31
2022-11-02T19:12:32.341Z,99879.47
2022-11-02T19:14:59.610Z,99876.50
2022-11-02T19:17:27.166Z,99882.47
2022-11-02T19:19:54.002Z,99884.91
2022-11-02T19:22:25.734Z,99879.50
2022-11-02T19:24:52.806Z,99882.19
2022-11-02T19:27:24.538Z,99871.66
2022-11-02T19:29:51.926Z,99872.72
2022-11-02T19:32:19.358Z,99861.66
2022-11-02T19:34:45.990Z,99861.44
2022-11-02T19:37:12.970Z,99861.69
2022-11-02T19:39:40.044Z,99853.06
2022-11-02T19:42:07.495Z,99853.13
2022-11-02T19:44:39.632Z,99843.47
2022-11-02T19:47:09.021Z,99854.81
2022-11-02T19:49:35.547Z,99850.25
2022-11-02T19:52:02.120Z,99851.34
2022-11-02T19:54:28.662Z,99851.63
2022-11-02T19:56:55.367Z,99848.13
2022-11-02T19:59:22.571Z,99849.50
2022-11-02T20:01:50.613Z,99838.16
2022-11-02T20:04:17.934Z,99841.44
2022-11-02T20:06:45.036Z,99832.81
2022-11-02T20:09:19.574Z,99838.78
2022-11-02T20:11:47.430Z,99838.22
2022-11-02T20:14:16.130Z,99834.19
2022-11-02T20:16:44.913Z,99836.13
2022-11-02T20:19:12.099Z,99836.16
2022-11-02T20:21:43.112Z,99830.00
2022-11-02T20:24:12.915Z,99827.31
2022-11-02T20:26:43.886Z,99826.81
2022-11-02T20:29:13.892Z,99813.56
2022-11-02T20:31:45.314Z,99821.97
2022-11-02T20:34:13.496Z,99819.78
2022-11-02T20:36:40.598Z,99818.97
2022-11-02T20:39:08.068Z,99818.97
2022-11-02T20:41:35.087Z,99828.97
2022-11-02T20:44:02.049Z,99828.16
2022-11-02T20:46:37.550Z,99831.41
2022-11-02T20:49:20.919Z,99829.28
2022-11-02T20:51:51.366Z,99830.38
2022-11-02T20:54:21.833Z,99827.94
2022-11-02T20:56:49.841Z,99830.13
2022-11-02T20:59:16.733Z,99830.41
2022-11-02T21:01:43.805Z,99821.78
2022-11-02T21:04:15.216Z,99816.09
2022-11-02T21:06:45.462Z,99813.13
2022-11-02T21:09:12.471Z,99806.13
2022-11-02T21:11:58.650Z,99806.69
2022-11-02T21:14:25.772Z,99802.38
2022-11-02T21:16:52.797Z,99805.06
2022-11-02T21:19:19.673Z,99805.91
2022-11-02T21:21:46.500Z,99812.09
2022-11-02T21:24:13.337Z,99810.47
2022-11-02T21:26:39.999Z,99803.72
2022-11-02T21:29:06.629Z,99797.50
2022-11-02T21:31:33.268Z,99802.34
2022-11-02T21:34:00.012Z,99804.78
2022-11-02T21:36:26.614Z,99806.38
2022-11-02T21:38:53.439Z,99803.41
2022-11-02T21:41:22.066Z,99786.41
2022-11-02T21:43:51.957Z,99788.31
2022-11-02T21:46:19.982Z,99787.78
2022-11-02T21:48:47.007Z,99789.94
2022-11-02T21:51:19.221Z,99792.09
2022-11-02T21:53:47.507Z,99788.06
2022-11-02T21:56:17.421Z,99780.75
2022-11-02T21:58:46.255Z,99777.53
2022-11-02T22:01:42.240Z,99771.03
2022-11-02T22:04:09.392Z,99769.47
2022-11-02T22:06:37.746Z,99769.25
2022-11-02T22:09:06.778Z,99773.31
2022-11-02T22:11:34.031Z,99762.00
2022-11-02T22:14:01.451Z,99770.44
2022-11-02T22:16:35.059Z,99760.47
2022-11-02T22:19:07.312Z,99751.34
2022-11-02T22:21:44.934Z,99742.72
2022-11-02T22:24:12.036Z,99740.88
2022-11-02T22:26:39.659Z,99739.00
2022-11-02T22:29:07.167Z,99740.63
2022-11-02T22:31:36.047Z,99741.44
2022-11-02T22:34:04.141Z,99748.47
2022-11-02T22:36:32.431Z,99743.88
2022-11-02T22:39:00.544Z,99742.00
2022-11-02T22:41:34.054Z,99743.38
2022-11-02T22:44:07.593Z,99742.03
2022-11-02T22:46:37.640Z,99732.59
2022-11-02T22:49:05.143Z,99731.00
2022-11-02T22:51:34.620Z,99736.38
2022-11-02T22:54:07.567Z,99729.94
2022-11-02T22:56:34.998Z,99732.09
2022-11-02T22:59:02.053Z,99734.25
2022-11-02T23:01:30.520Z,99732.41
2022-11-02T23:03:57.892Z,99736.44
2022-11-02T23:06:25.109Z,99734.81
2022-11-02T23:08:55.183Z,99735.09
2022-11-02T23:11:24.466Z,99727.28
2022-11-02T23:13:53.896Z,99726.75
2022-11-02T23:16:27.077Z,99729.44
2022-11-02T23:19:27.943Z,99719.22
2022-11-02T23:22:16.389Z,99717.06
2022-11-02T23:25:08.928Z,99718.13
2022-11-02T23:28:00.035Z,99710.56
2022-11-02T23:30:51.226Z,99712.19
2022-11-02T23:33:18.437Z,99710.00
2022-11-02T23:36:03.533Z,99712.16
2022-11-02T23:38:50.516Z,99708.94
2022-11-02T23:41:18.857Z,99697.06
2022-11-02T23:43:46.222Z,99700.00
2022-11-02T23:46:12.968Z,99702.69
2022-11-02T23:48:41.781Z,99693.56
2022-11-02T23:51:28.168Z,99699.22
2022-11-02T23:54:13.555Z,99693.28
2022-11-02T23:56:43.101Z,99693.28
2022-11-02T23:59:14.948Z,99691.16
